createdAt,value
2022-09-12T00:01:17.350Z,70806.38
2022-09-12T00:03:45.327Z,70847.16
2022-09-12T00:06:22.932Z,70803.41
2022-09-12T00:08:51.832Z,70779.47
2022-09-12T00:11:19.652Z,70832.66
2022-09-12T00:13:47.409Z,70859.53
2022-09-12T00:16:26.027Z,70882.00
2022-09-12T00:18:54.216Z,70874.31
2022-09-12T00:21:23.068Z,70868.69
2022-09-12T00:23:51.023Z,70850.66
2022-09-12T00:26:20.491Z,70857.72
2022-09-12T00:28:48.285Z,70851.50
2022-09-12T00:31:18.187Z,70877.25
2022-09-12T00:33:45.915Z,70888.75
2022-09-12T00:36:16.770Z,70848.22
2022-09-12T00:38:45.555Z,70881.66
2022-09-12T00:41:29.642Z,70844.38
2022-09-12T00:43:59.832Z,70863.03
2022-09-12T00:46:36.315Z,70868.03
2022-09-12T00:49:16.039Z,70899.09
2022-09-12T00:51:49.642Z,70884.91
2022-09-12T00:54:23.635Z,70882.50
2022-09-12T00:56:55.727Z,70859.47
2022-09-12T00:59:32.066Z,70813.38
2022-09-12T01:01:59.524Z,70876.34
2022-09-12T01:04:29.119Z,70865.69
2022-09-12T01:06:58.279Z,70823.50
2022-09-12T01:09:26.766Z,70838.88
2022-09-12T01:11:54.938Z,70846.00
2022-09-12T01:14:22.758Z,70859.03
2022-09-12T01:16:51.278Z,70845.41
2022-09-12T01:19:39.872Z,70840.09
2022-09-12T01:22:16.273Z,70829.47
2022-09-12T01:24:49.450Z,70811.16
2022-09-12T01:27:22.744Z,70809.41
2022-09-12T01:30:01.729Z,70809.44
2022-09-12T01:32:38.143Z,70772.81
2022-09-12T01:35:23.001Z,70806.84
2022-09-12T01:38:12.094Z,70773.75
2022-09-12T01:41:06.564Z,70795.34
2022-09-12T01:43:53.621Z,70792.09
2022-09-12T01:46:31.356Z,70760.78
2022-09-12T01:49:12.167Z,70754.00
2022-09-12T01:52:01.851Z,70742.47
2022-09-12T01:54:47.020Z,70756.38
2022-09-12T01:57:24.954Z,70782.38
2022-09-12T01:59:59.015Z,70744.25
2022-09-12T02:02:37.769Z,70765.84
2022-09-12T02:05:27.518Z,70792.44
2022-09-12T02:08:03.962Z,70769.69
2022-09-12T02:10:36.995Z,70779.44
2022-09-12T02:13:18.773Z,70790.34
2022-09-12T02:15:56.412Z,70750.75
2022-09-12T02:18:30.798Z,70784.16
2022-09-12T02:20:58.752Z,70744.03
2022-09-12T02:23:29.800Z,70767.03
2022-09-12T02:26:06.740Z,70788.91
2022-09-12T02:28:40.205Z,70771.78
2022-09-12T02:31:29.075Z,70800.13
2022-09-12T02:34:29.156Z,70803.38
2022-09-12T02:37:18.664Z,70767.03
2022-09-12T02:39:46.552Z,70772.94
2022-09-12T02:42:14.478Z,70771.78
2022-09-12T02:44:42.627Z,70747.25
2022-09-12T02:47:18.085Z,70761.44
2022-09-12T02:49:46.541Z,70800.47
2022-09-12T02:52:14.286Z,70754.69
2022-09-12T02:54:43.087Z,70784.81
2022-09-12T02:57:23.044Z,70791.03
2022-09-12T02:59:53.510Z,70770.09
2022-09-12T03:02:52.043Z,70741.47
2022-09-12T03:05:57.757Z,70749.16
2022-09-12T03:08:46.961Z,70778.41
2022-09-12T03:11:45.474Z,70753.88
2022-09-12T03:14:41.316Z,70753.03
2022-09-12T03:17:26.169Z,70750.03
2022-09-12T03:19:57.623Z,70738.22
2022-09-12T03:22:28.049Z,70774.25
2022-09-12T03:25:14.987Z,70751.19
2022-09-12T03:28:07.520Z,70783.09
2022-09-12T03:30:43.703Z,70769.19
2022-09-12T03:33:20.198Z,70791.91
2022-09-12T03:35:49.182Z,70813.19
2022-09-12T03:38:17.634Z,70794.59
2022-09-12T03:40:47.782Z,70823.81
2022-09-12T03:43:16.744Z,70787.19
2022-09-12T03:45:44.076Z,70781.00
2022-09-12T03:48:12.002Z,70806.06
2022-09-12T03:50:39.431Z,70796.63
2022-09-12T03:53:06.695Z,70808.75
2022-09-12T03:55:34.102Z,70790.72
2022-09-12T03:58:01.391Z,70796.63
2022-09-12T04:00:28.840Z,70777.13
2022-09-12T04:02:57.510Z,70812.84
2022-09-12T04:05:26.202Z,70785.38
2022-09-12T04:07:53.599Z,70817.88
2022-09-12T04:10:21.077Z,70798.66
2022-09-12T04:12:48.412Z,70850.34
2022-09-12T04:15:16.190Z,70797.75
2022-09-12T04:17:43.543Z,70802.75
2022-09-12T04:20:10.964Z,70777.03
2022-09-12T04:22:38.557Z,70774.69
2022-09-12T04:25:06.970Z,70786.22
2022-09-12T04:27:34.787Z,70805.75
2022-09-12T04:30:02.824Z,70762.38
2022-09-12T04:32:33.134Z,70763.00
2022-09-12T04:35:00.669Z,70749.13
2022-09-12T04:37:28.031Z,70708.66
2022-09-12T04:39:57.910Z,70726.94
2022-09-12T04:42:25.438Z,70745.53
2022-09-12T04:44:53.099Z,70734.88
2022-09-12T04:47:20.598Z,70745.19
2022-09-12T04:49:51.103Z,70756.09
2022-09-12T04:52:18.404Z,70781.81
2022-09-12T04:54:45.716Z,70726.28
2022-09-12T04:57:13.349Z,70729.25
2022-09-12T04:59:40.942Z,70714.78
2022-09-12T05:02:08.353Z,70746.69
2022-09-12T05:04:36.073Z,70743.69
2022-09-12T05:07:03.734Z,70741.03
2022-09-12T05:09:31.422Z,70703.53
2022-09-12T05:12:04.145Z,70693.78
2022-09-12T05:14:32.988Z,70727.50
2022-09-12T05:17:01.643Z,70720.69
2022-09-12T05:19:31.046Z,70708.50
2022-09-12T05:21:59.222Z,70711.47
2022-09-12T05:24:27.193Z,70735.66
2022-09-12T05:26:54.734Z,70768.44
2022-09-12T05:29:22.079Z,70743.00
2022-09-12T05:31:52.043Z,70711.34
2022-09-12T05:34:20.257Z,70767.50
2022-09-12T05:36:47.737Z,70753.28
2022-09-12T05:39:15.072Z,70728.47
2022-09-12T05:41:42.526Z,70728.72
2022-09-12T05:44:13.927Z,70781.03
2022-09-12T05:46:44.022Z,70768.03
2022-09-12T05:49:13.665Z,70771.00
2022-09-12T05:51:44.893Z,70791.34
2022-09-12T05:54:15.303Z,70779.78
2022-09-12T05:56:44.570Z,70840.94
2022-09-12T05:59:20.799Z,70815.78
2022-09-12T06:01:49.156Z,70811.63
2022-09-12T06:04:16.890Z,70819.31
2022-09-12T06:06:46.125Z,70808.13
2022-09-12T06:09:15.877Z,70842.38
2022-09-12T06:11:43.788Z,70852.38
2022-09-12T06:14:13.457Z,70859.44
2022-09-12T06:16:41.340Z,70839.31
2022-09-12T06:19:15.043Z,70842.25
2022-09-12T06:21:42.626Z,70877.38
2022-09-12T06:24:10.775Z,70843.38
2022-09-12T06:26:38.474Z,70870.56
2022-09-12T06:29:06.135Z,70873.44
2022-09-12T06:31:37.072Z,70878.78
2022-09-12T06:34:09.627Z,70848.88
2022-09-12T06:36:45.960Z,70829.09
2022-09-12T06:39:21.561Z,70842.13
2022-09-12T06:41:50.976Z,70811.88
2022-09-12T06:44:22.493Z,70873.34
2022-09-12T06:46:50.511Z,70834.31
2022-09-12T06:49:17.964Z,70837.56
2022-09-12T06:51:45.445Z,70872.34
2022-09-12T06:54:15.577Z,70910.41
2022-09-12T06:56:44.176Z,70881.34
2022-09-12T06:59:11.503Z,70867.38
2022-09-12T07:01:40.208Z,70899.59
2022-09-12T07:04:07.845Z,70874.47
2022-09-12T07:06:40.983Z,70872.41
2022-09-12T07:09:11.803Z,70842.94
2022-09-12T07:11:40.522Z,70863.69
2022-09-12T07:14:10.439Z,70899.75
2022-09-12T07:16:38.677Z,70878.34
2022-09-12T07:19:08.204Z,70925.13
2022-09-12T07:21:42.113Z,70915.59
2022-09-12T07:24:10.861Z,70923.91
2022-09-12T07:26:40.245Z,70904.66
2022-09-12T07:29:35.237Z,70907.88
2022-09-12T07:31:57.960Z,70931.22
2022-09-12T07:34:25.242Z,70919.66
2022-09-12T07:36:52.587Z,70921.34
2022-09-12T07:39:20.082Z,70922.75
2022-09-12T07:41:47.432Z,70980.44
2022-09-12T07:44:14.893Z,70967.34
2022-09-12T07:46:42.216Z,70984.03
2022-09-12T07:49:12.132Z,70985.06
2022-09-12T07:51:39.702Z,71000.13
2022-09-12T07:58:20.150Z,71017.50
2022-09-12T08:00:47.478Z,70996.44
2022-09-12T08:03:14.865Z,71047.75
2022-09-12T08:05:42.251Z,71031.06
2022-09-12T08:08:09.879Z,71046.97
2022-09-12T08:10:37.334Z,71078.91
2022-09-12T08:13:04.739Z,71087.81
2022-09-12T08:15:32.222Z,71084.28
2022-09-12T08:17:59.577Z,71102.34
2022-09-12T08:20:28.488Z,71032.06
2022-09-12T08:22:56.445Z,71056.50
2022-09-12T08:25:23.902Z,71081.75
2022-09-12T08:27:52.127Z,71068.38
2022-09-12T08:30:19.507Z,71038.06
2022-09-12T08:32:47.219Z,71079.50
2022-09-12T08:35:17.713Z,71113.84
2022-09-12T08:37:45.064Z,71094.69
2022-09-12T08:40:17.009Z,71166.97
2022-09-12T08:42:54.573Z,71232.06
2022-09-12T08:45:31.398Z,71199.34
2022-09-12T08:48:01.738Z,71145.25
2022-09-12T08:50:29.382Z,71188.47
2022-09-12T08:53:20.318Z,71325.53
2022-09-12T08:55:56.165Z,71418.28
2022-09-12T08:58:25.263Z,71489.91
2022-09-12T09:01:04.675Z,71487.59
2022-09-12T09:03:57.150Z,71399.84
2022-09-12T09:07:02.370Z,71378.53
2022-09-12T09:09:48.231Z,71441.97
2022-09-12T09:12:18.404Z,71540.41
2022-09-12T09:14:57.679Z,71600.56
2022-09-12T09:17:47.617Z,71663.25
2022-09-12T09:20:30.743Z,71586.41
2022-09-12T09:23:25.935Z,71618.69
2022-09-12T09:26:10.505Z,71638.94
2022-09-12T09:28:57.706Z,71614.72
2022-09-12T09:31:30.780Z,71774.69
2022-09-12T09:33:58.722Z,71851.16
2022-09-12T09:36:47.945Z,71744.97
2022-09-12T09:39:47.499Z,71764.84
2022-09-12T09:42:47.404Z,71779.25
2022-09-12T09:45:21.542Z,71966.25
2022-09-12T09:47:57.191Z,72236.38
2022-09-12T09:50:25.480Z,72173.28
2022-09-12T09:52:55.123Z,72324.75
2022-09-12T09:55:28.408Z,72463.63
2022-09-12T09:57:55.740Z,72619.44
2022-09-12T10:00:29.627Z,72587.88
2022-09-12T10:03:06.762Z,72713.84
2022-09-12T10:05:46.454Z,72499.72
2022-09-12T10:08:21.331Z,72441.00
2022-09-12T10:11:01.790Z,72566.69
2022-09-12T10:13:50.487Z,72477.47
2022-09-12T10:16:30.620Z,72318.19
2022-09-12T10:19:02.920Z,72163.84
2022-09-12T10:22:07.323Z,72130.44
2022-09-12T10:24:41.117Z,72249.59
2022-09-12T10:27:16.192Z,72238.06
2022-09-12T10:29:49.404Z,72075.50
2022-09-12T10:32:41.198Z,72046.75
2022-09-12T10:35:19.336Z,71922.19
2022-09-12T10:38:07.136Z,71878.88
2022-09-12T10:40:37.631Z,71874.69
2022-09-12T10:43:23.579Z,71864.13
2022-09-12T10:45:51.082Z,71796.84
2022-09-12T10:48:32.550Z,71772.28
2022-09-12T10:51:00.843Z,71780.25
2022-09-12T10:53:34.665Z,71819.47
2022-09-12T10:56:23.023Z,71739.41
2022-09-12T10:59:25.576Z,71776.59
2022-09-12T11:02:14.297Z,71921.00
2022-09-12T11:04:42.072Z,72243.38
2022-09-12T11:07:46.814Z,72510.63
2022-09-12T11:10:49.108Z,72740.25
2022-09-12T11:13:28.181Z,72966.38
2022-09-12T11:16:22.904Z,73122.22
2022-09-12T11:18:53.498Z,73111.72
2022-09-12T11:21:42.248Z,73156.56
2022-09-12T11:24:28.318Z,73201.41
2022-09-12T11:27:01.792Z,73296.81
2022-09-12T11:29:49.299Z,73278.66
2022-09-12T11:32:38.115Z,73208.81
2022-09-12T11:35:27.395Z,73114.63
2022-09-12T11:38:16.267Z,73015.16
2022-09-12T11:40:50.281Z,72875.88
2022-09-12T11:43:30.090Z,72844.59
2022-09-12T11:46:05.271Z,72800.41
2022-09-12T11:48:40.878Z,72576.66
2022-09-12T11:51:19.779Z,72729.03
2022-09-12T11:54:00.213Z,72891.81
2022-09-12T11:56:27.495Z,73082.50
2022-09-12T11:59:02.955Z,73222.91
2022-09-12T12:01:43.939Z,73170.09
2022-09-12T12:04:21.810Z,72954.88
2022-09-12T12:07:04.849Z,72816.28
2022-09-12T12:09:32.872Z,72665.09
2022-09-12T12:12:07.258Z,72597.66
2022-09-12T12:14:47.841Z,72456.25
2022-09-12T12:17:20.952Z,72338.38
2022-09-12T12:20:08.568Z,72316.66
2022-09-12T12:22:36.331Z,72269.34
2022-09-12T12:25:11.469Z,72236.00
2022-09-12T12:27:45.385Z,72148.28
2022-09-12T12:30:54.055Z,72182.28
2022-09-12T12:33:21.847Z,72117.28
2022-09-12T12:36:01.614Z,72165.41
2022-09-12T12:38:34.572Z,72176.16
2022-09-12T12:41:20.003Z,72137.94
2022-09-12T12:43:49.454Z,72135.03
2022-09-12T12:46:22.428Z,72141.28
2022-09-12T12:49:22.131Z,72020.34
2022-09-12T12:51:59.112Z,72020.00
2022-09-12T12:54:46.389Z,71947.69
2022-09-12T12:57:19.943Z,72005.97
2022-09-12T12:59:53.773Z,71937.63
2022-09-12T13:02:52.637Z,71839.41
2022-09-12T13:05:24.496Z,71867.47
2022-09-12T13:08:10.796Z,71896.91
2022-09-12T13:10:38.929Z,71938.66
2022-09-12T13:13:08.734Z,71949.41
2022-09-12T13:15:36.139Z,71985.53
2022-09-12T13:18:13.184Z,71929.94
2022-09-12T13:21:19.796Z,71925.81
2022-09-12T13:24:02.920Z,71958.00
2022-09-12T13:26:40.408Z,71945.59
2022-09-12T13:29:21.741Z,71895.13
2022-09-12T13:31:56.571Z,71893.19
2022-09-12T13:34:54.563Z,71933.72
2022-09-12T13:37:51.350Z,71955.47
2022-09-12T13:40:27.425Z,71920.13
2022-09-12T13:43:15.641Z,71932.97
2022-09-12T13:45:46.678Z,71931.66
2022-09-12T13:48:19.021Z,71942.22
2022-09-12T13:51:01.512Z,71959.16
2022-09-12T13:53:44.866Z,71931.13
2022-09-12T13:56:18.585Z,71933.56
2022-09-12T13:59:01.068Z,71872.19
2022-09-12T14:01:40.549Z,71857.34
2022-09-12T14:04:45.708Z,71851.97
2022-09-12T14:07:20.683Z,71795.25
2022-09-12T14:09:55.915Z,71847.63
2022-09-12T14:12:30.211Z,71840.72
2022-09-12T14:14:58.045Z,71863.16
2022-09-12T14:17:31.652Z,71831.75
2022-09-12T14:20:07.230Z,71779.78
2022-09-12T14:22:36.368Z,71776.81
2022-09-12T14:25:05.175Z,71787.81
2022-09-12T14:27:45.589Z,71751.97
2022-09-12T14:30:31.973Z,71713.72
2022-09-12T14:33:22.865Z,71719.31
2022-09-12T14:35:53.126Z,71723.44
2022-09-12T14:38:30.106Z,71760.19
2022-09-12T14:41:05.974Z,71710.22
2022-09-12T14:43:47.120Z,71735.06
2022-09-12T14:46:24.365Z,71734.03
2022-09-12T14:48:55.508Z,71697.16
2022-09-12T14:51:31.294Z,71692.75
2022-09-12T14:53:59.626Z,71698.75
2022-09-12T14:56:42.240Z,71673.22
2022-09-12T14:59:34.356Z,71610.53
2022-09-12T15:02:22.143Z,71573.78
2022-09-12T15:04:54.062Z,71629.41
2022-09-12T15:07:33.853Z,71642.22
2022-09-12T15:10:18.209Z,71607.97
2022-09-12T15:12:45.551Z,71604.13
2022-09-12T15:15:20.668Z,71627.69
2022-09-12T15:17:48.121Z,71594.28
2022-09-12T15:20:15.482Z,71569.59
2022-09-12T15:22:43.132Z,71574.75
2022-09-12T15:25:12.708Z,71595.38
2022-09-12T15:27:43.177Z,71562.59
2022-09-12T15:30:12.967Z,71589.44
2022-09-12T15:32:43.392Z,71570.66
2022-09-12T15:35:23.332Z,71578.75
2022-09-12T15:37:50.932Z,71576.78
2022-09-12T15:40:19.031Z,71558.88
2022-09-12T15:42:46.456Z,71513.03
2022-09-12T15:45:19.979Z,71514.00
2022-09-12T15:47:47.378Z,71478.25
2022-09-12T15:50:14.879Z,71481.63
2022-09-12T15:52:42.253Z,71491.53
2022-09-12T15:55:27.756Z,71505.56
2022-09-12T15:57:55.500Z,71447.53
2022-09-12T16:00:23.299Z,71444.88
2022-09-12T16:02:52.999Z,71442.78
2022-09-12T16:05:26.486Z,71402.00
2022-09-12T16:07:55.052Z,71470.03
2022-09-12T16:10:25.750Z,71403.63
2022-09-12T16:12:53.388Z,71434.69
2022-09-12T16:15:23.957Z,71380.00
2022-09-12T16:17:52.240Z,71382.78
2022-09-12T16:20:20.802Z,71355.75
2022-09-12T16:22:48.491Z,71364.09
2022-09-12T16:25:16.016Z,71349.56
2022-09-12T16:27:44.134Z,71342.13
2022-09-12T16:30:13.163Z,71332.69
2022-09-12T16:32:40.749Z,71336.84
2022-09-12T16:35:08.901Z,71358.00
2022-09-12T16:37:36.449Z,71340.78
2022-09-12T16:40:07.326Z,71324.44
2022-09-12T16:42:35.735Z,71303.91
2022-09-12T16:45:03.469Z,71297.16
2022-09-12T16:47:32.288Z,71294.47
2022-09-12T16:49:59.573Z,71308.50
2022-09-12T16:52:27.134Z,71269.28
2022-09-12T16:54:56.356Z,71284.47
2022-09-12T16:57:24.004Z,71267.59
2022-09-12T16:59:52.011Z,71261.97
2022-09-12T17:02:19.638Z,71265.88
2022-09-12T17:04:47.345Z,71274.28
2022-09-12T17:07:14.687Z,71235.66
2022-09-12T17:09:45.093Z,71242.84
2022-09-12T17:12:15.240Z,71253.59
2022-09-12T17:14:42.560Z,71197.75
2022-09-12T17:17:10.373Z,71200.78
2022-09-12T17:19:37.835Z,71220.44
2022-09-12T17:22:05.227Z,71232.94
2022-09-12T17:24:33.005Z,71172.03
2022-09-12T17:27:00.507Z,71197.31
2022-09-12T17:29:28.037Z,71173.00
2022-09-12T17:31:55.692Z,71151.38
2022-09-12T17:34:23.432Z,71154.69
2022-09-12T17:36:50.717Z,71184.75
2022-09-12T17:39:18.153Z,71114.34
2022-09-12T17:41:46.131Z,71145.00
2022-09-12T17:44:15.149Z,71140.56
2022-09-12T17:46:45.775Z,71153.34
2022-09-12T17:49:22.292Z,71120.97
2022-09-12T17:51:51.631Z,71114.13
2022-09-12T17:54:22.524Z,71115.63
2022-09-12T17:56:51.243Z,71134.06
2022-09-12T17:59:21.366Z,71131.72
2022-09-12T18:02:07.168Z,71114.88
2022-09-12T18:04:35.013Z,71112.81
2022-09-12T18:07:02.482Z,71142.91
2022-09-12T18:09:30.673Z,71099.75
2022-09-12T18:11:58.558Z,71107.78
2022-09-12T18:14:27.856Z,71128.34
2022-09-12T18:16:57.163Z,71048.78
2022-09-12T18:19:25.192Z,71045.31
2022-09-12T18:21:53.021Z,71056.34
2022-09-12T18:24:20.523Z,71085.19
2022-09-12T18:26:48.286Z,71074.50
2022-09-12T18:29:16.919Z,71040.13
2022-09-12T18:31:45.195Z,71076.94
2022-09-12T18:34:13.829Z,71065.06
2022-09-12T18:36:42.887Z,71025.31
2022-09-12T18:39:10.855Z,71059.75
2022-09-12T18:41:38.994Z,71035.22
2022-09-12T18:44:07.203Z,71007.41
2022-09-12T18:46:36.173Z,71000.88
2022-09-12T18:49:04.614Z,71024.06
2022-09-12T18:51:35.837Z,70964.75
2022-09-12T18:54:06.577Z,71008.44
2022-09-12T18:56:38.403Z,71000.78
2022-09-12T18:59:07.199Z,70937.34
2022-09-12T19:01:39.043Z,70983.88
2022-09-12T19:04:08.895Z,70936.00
2022-09-12T19:06:40.387Z,70933.94
2022-09-12T19:09:09.089Z,70971.09
2022-09-12T19:11:42.515Z,70926.94
2022-09-12T19:14:09.918Z,70942.97
2022-09-12T19:16:38.434Z,70913.91
2022-09-12T19:19:06.388Z,70949.28
2022-09-12T19:21:36.720Z,70894.47
2022-09-12T19:24:07.046Z,70920.91
2022-09-12T19:26:35.715Z,70851.34
2022-09-12T19:29:04.004Z,70893.44
2022-09-12T19:31:32.658Z,70866.19
2022-09-12T19:34:05.492Z,70870.34
2022-09-12T19:36:49.120Z,70866.22
2022-09-12T19:39:19.512Z,70852.34
2022-09-12T19:41:48.236Z,70867.75
2022-09-12T19:44:19.011Z,70852.06
2022-09-12T19:46:46.520Z,70840.56
2022-09-12T19:49:14.020Z,70808.59
2022-09-12T19:51:41.711Z,70829.66
2022-09-12T19:54:09.556Z,70844.81
2022-09-12T19:56:36.936Z,70846.59
2022-09-12T19:59:04.345Z,70822.63
2022-09-12T20:01:32.487Z,70844.31
2022-09-12T20:03:59.899Z,70799.66
2022-09-12T20:06:27.768Z,70799.09
2022-09-12T20:08:56.008Z,70806.22
2022-09-12T20:11:24.445Z,70815.16
2022-09-12T20:13:52.618Z,70811.00
2022-09-12T20:16:26.195Z,70764.00
2022-09-12T20:18:56.680Z,70767.88
2022-09-12T20:21:31.264Z,70769.69
2022-09-12T20:24:07.919Z,70792.84
2022-09-12T20:26:35.535Z,70750.63
2022-09-12T20:29:03.608Z,70705.97
2022-09-12T20:31:32.113Z,70730.56
2022-09-12T20:33:59.944Z,70709.59
2022-09-12T20:36:27.991Z,70736.22
2022-09-12T20:38:58.397Z,70721.44
2022-09-12T20:41:27.448Z,70715.81
2022-09-12T20:43:56.094Z,70726.19
2022-09-12T20:46:25.761Z,70703.16
2022-09-12T20:48:53.459Z,70701.06
2022-09-12T20:51:21.782Z,70706.72
2022-09-12T20:53:52.980Z,70717.97
2022-09-12T20:56:21.100Z,70691.97
2022-09-12T20:58:48.500Z,70689.59
2022-09-12T21:01:16.935Z,70723.34
2022-09-12T21:03:45.775Z,70670.13
2022-09-12T21:06:16.949Z,70731.66
2022-09-12T21:08:45.934Z,70675.47
2022-09-12T21:11:14.426Z,70683.19
2022-09-12T21:13:42.466Z,70691.50
2022-09-12T21:16:16.061Z,70719.91
2022-09-12T21:18:44.436Z,70701.00
2022-09-12T21:21:13.620Z,70688.59
2022-09-12T21:23:41.601Z,70661.44
2022-09-12T21:26:09.049Z,70663.78
2022-09-12T21:28:36.479Z,70690.41
2022-09-12T21:31:04.307Z,70685.09
2022-09-12T21:33:32.089Z,70684.53
2022-09-12T21:36:04.237Z,70703.50
2022-09-12T21:38:32.626Z,70630.53
2022-09-12T21:41:04.788Z,70676.38
2022-09-12T21:43:32.316Z,70648.03
2022-09-12T21:46:00.754Z,70635.63
2022-09-12T21:48:28.429Z,70620.63
2022-09-12T21:50:56.179Z,70618.25
2022-09-12T21:53:24.095Z,70641.09
2022-09-12T21:55:53.184Z,70640.16
2022-09-12T21:58:20.627Z,70622.75
2022-09-12T22:00:49.232Z,70623.97
2022-09-12T22:03:18.952Z,70621.06
2022-09-12T22:05:51.946Z,70605.13
2022-09-12T22:08:20.520Z,70606.94
2022-09-12T22:10:47.947Z,70623.47
2022-09-12T22:13:15.263Z,70588.91
2022-09-12T22:15:51.344Z,70599.25
2022-09-12T22:18:19.000Z,70599.88
2022-09-12T22:20:46.842Z,70614.66
2022-09-12T22:23:32.681Z,70618.81
2022-09-12T22:26:02.697Z,70583.38
2022-09-12T22:28:32.052Z,70561.59
2022-09-12T22:30:59.609Z,70575.19
2022-09-12T22:33:27.799Z,70571.06
2022-09-12T22:35:55.255Z,70556.34
2022-09-12T22:38:22.641Z,70545.16
2022-09-12T22:40:49.982Z,70569.69
2022-09-12T22:43:17.379Z,70564.94
2022-09-12T22:45:44.765Z,70541.03
2022-09-12T22:48:12.418Z,70537.50
2022-09-12T22:50:40.023Z,70564.66
2022-09-12T22:53:07.367Z,70528.09
2022-09-12T22:55:34.899Z,70538.19
2022-09-12T22:58:03.578Z,70549.69
2022-09-12T23:00:30.926Z,70545.34
2022-09-12T23:02:58.413Z,70524.13
2022-09-12T23:05:25.828Z,70525.31
2022-09-12T23:07:55.553Z,70494.63
2022-09-12T23:10:23.212Z,70512.31
2022-09-12T23:12:50.625Z,70512.41
2022-09-12T23:15:18.010Z,70491.41
2022-09-12T23:17:45.265Z,70531.84
2022-09-12T23:20:12.623Z,70500.28
2022-09-12T23:22:39.974Z,70497.38
2022-09-12T23:25:07.789Z,70499.19
2022-09-12T23:27:35.297Z,70482.44
2022-09-12T23:30:02.911Z,70480.09
2022-09-12T23:32:30.218Z,70489.81
2022-09-12T23:34:58.358Z,70475.06
2022-09-12T23:37:26.563Z,70458.84
2022-09-12T23:39:53.940Z,70473.66
2022-09-12T23:42:21.447Z,70490.53
2022-09-12T23:44:48.814Z,70445.38
2022-09-12T23:47:17.235Z,70470.22
2022-09-12T23:49:45.784Z,70468.41
2022-09-12T23:52:13.097Z,70479.03
2022-09-12T23:54:40.414Z,70453.66
2022-09-12T23:57:07.736Z,70458.38
2022-09-12T23:59:35.020Z,70473.41
